Terminal Aerodrome Forecast
Issued by NWS

Home | Current Version | Previous Version | Text Only | Print | Product List | Glossary On
Versions: 1 2 3 4 5 6 7 8 9 10 11 12 13 14 15 16 17 18 19 20 21 22 23 24
000
FTUS41 KBGM 261700
TAFELM
TAF
KELM 261730Z 2618/2718 07005KT 1SM -SN OVC020
     FM270300 04005KT 2SM -SN OVC015
     FM271000 36005KT 4SM -SHSN OVC025
     FM271500 33012KT P6SM OVC035=

USA.gov is the U.S. government's official web portal to all federal, state and local government web resources and services.